createdAt,value
2022-08-17T00:02:04.966Z,51.00
2022-08-17T00:04:40.174Z,51.00
2022-08-17T00:07:06.918Z,51.00
2022-08-17T00:09:33.741Z,50.90
2022-08-17T00:12:41.280Z,50.90
2022-08-17T00:14:50.352Z,50.90
2022-08-17T00:17:17.437Z,50.90
2022-08-17T00:19:44.195Z,50.80
2022-08-17T00:22:34.267Z,50.80
2022-08-17T00:24:57.775Z,50.70
2022-08-17T00:27:24.536Z,50.80
2022-08-17T00:29:51.911Z,50.70
2022-08-17T00:33:13.603Z,50.70
2022-08-17T00:35:08.257Z,50.70
2022-08-17T00:37:35.136Z,50.70
2022-08-17T00:40:02.165Z,50.60
2022-08-17T00:42:31.239Z,50.60
2022-08-17T00:44:59.082Z,50.60
2022-08-17T00:47:26.059Z,50.50
2022-08-17T00:49:53.944Z,50.60
2022-08-17T00:52:24.977Z,50.60
2022-08-17T00:54:54.737Z,50.50
2022-08-17T00:57:26.125Z,50.50
2022-08-17T01:00:02.726Z,50.50
2022-08-17T01:02:41.183Z,50.50
2022-08-17T01:05:23.619Z,50.50
2022-08-17T01:07:53.407Z,50.40
2022-08-17T01:10:58.731Z,50.40
2022-08-17T01:13:12.792Z,50.40
2022-08-17T01:15:46.097Z,50.40
2022-08-17T01:18:14.189Z,50.40
2022-08-17T01:20:49.289Z,50.30
2022-08-17T01:23:20.791Z,50.30
2022-08-17T01:25:53.982Z,50.20
2022-08-17T01:28:33.452Z,50.10
2022-08-17T01:31:10.334Z,50.10
2022-08-17T01:33:37.585Z,50.10
2022-08-17T01:36:07.226Z,50.00
2022-08-17T01:38:38.540Z,50.00
2022-08-17T01:41:12.373Z,50.10
2022-08-17T01:44:01.732Z,50.10
2022-08-17T01:46:33.550Z,50.20
2022-08-17T01:49:01.180Z,50.20
2022-08-17T01:51:32.654Z,50.20
2022-08-17T01:54:07.801Z,50.20
2022-08-17T01:56:38.497Z,50.30
2022-08-17T01:59:05.445Z,50.20
2022-08-17T02:01:34.598Z,51.00
2022-08-17T02:04:02.670Z,50.30
2022-08-17T02:06:52.422Z,50.30
2022-08-17T02:09:18.627Z,50.40
2022-08-17T02:11:50.059Z,50.40
2022-08-17T02:14:17.932Z,50.40
2022-08-17T02:16:44.749Z,50.40
2022-08-17T02:19:15.904Z,50.50
2022-08-17T02:21:45.642Z,50.40
2022-08-17T02:25:01.253Z,50.40
2022-08-17T02:27:05.928Z,50.40
2022-08-17T02:29:32.742Z,50.30
2022-08-17T02:32:00.139Z,50.30
2022-08-17T02:34:27.483Z,50.30
2022-08-17T02:36:55.224Z,50.20
2022-08-17T02:39:22.077Z,50.20
2022-08-17T02:41:49.141Z,50.20
2022-08-17T02:44:39.481Z,50.10
2022-08-17T02:47:04.133Z,50.10
2022-08-17T02:49:31.162Z,50.00
2022-08-17T02:51:58.913Z,50.00
2022-08-17T02:54:39.267Z,50.10
2022-08-17T02:57:07.837Z,50.00
2022-08-17T02:59:34.589Z,49.90
2022-08-17T03:02:03.761Z,50.00
2022-08-17T03:04:31.235Z,50.00
2022-08-17T03:07:02.437Z,50.00
2022-08-17T03:09:29.276Z,50.00
2022-08-17T03:12:03.563Z,50.00
2022-08-17T03:14:32.264Z,50.00
2022-08-17T03:16:59.382Z,49.90
2022-08-17T03:19:26.203Z,49.80
2022-08-17T03:21:55.063Z,49.80
2022-08-17T03:24:28.616Z,49.80
2022-08-17T03:26:55.805Z,49.70
2022-08-17T03:29:22.677Z,49.70
2022-08-17T03:31:50.153Z,49.60
2022-08-17T03:34:17.412Z,49.60
2022-08-17T03:36:44.649Z,49.70
2022-08-17T03:39:11.434Z,49.60
2022-08-17T03:41:39.268Z,49.60
2022-08-17T03:44:06.162Z,49.60
2022-08-17T03:46:51.589Z,49.60
2022-08-17T03:49:36.894Z,49.60
2022-08-17T03:52:22.348Z,49.60
2022-08-17T03:55:07.632Z,49.60
2022-08-17T03:57:34.475Z,49.50
2022-08-17T04:00:01.330Z,49.50
2022-08-17T04:02:32.388Z,49.50
2022-08-17T04:04:59.850Z,49.50
2022-08-17T04:07:28.946Z,49.50
2022-08-17T04:09:55.848Z,49.50
2022-08-17T04:12:23.960Z,49.50
2022-08-17T04:14:52.874Z,49.50
2022-08-17T04:17:22.553Z,49.50
2022-08-17T04:19:49.372Z,49.50
2022-08-17T04:22:31.794Z,49.60
2022-08-17T04:25:08.641Z,49.60
2022-08-17T04:27:35.844Z,49.70
2022-08-17T04:30:03.625Z,49.70
2022-08-17T04:32:58.615Z,49.80
2022-08-17T04:35:23.619Z,49.80
2022-08-17T04:37:51.275Z,49.80
2022-08-17T04:40:37.524Z,49.90
2022-08-17T04:43:13.746Z,49.70
2022-08-17T04:46:05.121Z,49.70
2022-08-17T04:48:37.078Z,49.70
2022-08-17T04:51:11.713Z,49.70
2022-08-17T04:53:41.710Z,49.80
2022-08-17T04:56:11.851Z,49.80
2022-08-17T04:58:45.341Z,49.80
2022-08-17T05:01:12.682Z,49.90
2022-08-17T05:03:39.774Z,49.90
2022-08-17T05:06:06.766Z,49.90
2022-08-17T05:08:33.593Z,49.90
2022-08-17T05:11:00.420Z,50.00
2022-08-17T05:13:31.532Z,50.10
2022-08-17T05:16:03.149Z,50.20
2022-08-17T05:18:30.664Z,50.30
2022-08-17T05:20:57.925Z,50.30
2022-08-17T05:23:27.691Z,50.30
2022-08-17T05:26:11.639Z,50.40
2022-08-17T05:28:49.481Z,50.40
2022-08-17T05:31:18.215Z,50.50
2022-08-17T05:33:46.329Z,50.50
2022-08-17T05:36:42.397Z,50.50
2022-08-17T05:39:02.215Z,50.60
2022-08-17T05:41:29.179Z,50.70
2022-08-17T05:43:56.650Z,50.80
2022-08-17T05:46:27.635Z,50.90
2022-08-17T05:49:08.034Z,51.00
2022-08-17T05:51:53.764Z,51.20
2022-08-17T05:54:57.285Z,51.30
2022-08-17T05:57:47.623Z,51.40
2022-08-17T06:00:30.614Z,51.60
2022-08-17T06:03:15.309Z,51.70
2022-08-17T06:05:55.862Z,51.70
2022-08-17T06:08:42.345Z,51.80
2022-08-17T06:11:38.511Z,51.90
2022-08-17T06:14:41.897Z,52.70
2022-08-17T06:17:13.660Z,52.90
2022-08-17T06:19:50.170Z,52.20
2022-08-17T06:22:20.311Z,52.30
2022-08-17T06:25:04.491Z,52.40
2022-08-17T06:28:14.792Z,52.40
2022-08-17T06:31:00.132Z,52.50
2022-08-17T06:33:37.428Z,52.60
2022-08-17T06:36:16.029Z,52.60
2022-08-17T06:39:04.490Z,52.70
2022-08-17T06:41:42.920Z,52.80
2022-08-17T06:44:43.371Z,52.90
2022-08-17T06:47:29.306Z,52.90
2022-08-17T06:50:14.649Z,52.90
2022-08-17T06:52:51.188Z,52.90
2022-08-17T06:55:32.199Z,53.00
2022-08-17T06:58:15.735Z,53.00
2022-08-17T07:00:47.100Z,53.00
2022-08-17T07:03:28.069Z,53.00
2022-08-17T07:06:00.942Z,53.00
2022-08-17T07:08:35.555Z,53.00
2022-08-17T07:11:09.806Z,53.00
2022-08-17T07:13:55.248Z,53.70
2022-08-17T07:16:31.173Z,52.90
2022-08-17T07:18:59.435Z,53.00
2022-08-17T07:21:34.252Z,52.90
2022-08-17T07:24:30.447Z,52.90
2022-08-17T07:27:17.226Z,52.90
2022-08-17T07:30:02.419Z,52.80
2022-08-17T07:32:50.851Z,52.80
2022-08-17T07:35:23.077Z,52.80
2022-08-17T07:38:07.127Z,52.80
2022-08-17T07:41:02.116Z,52.90
2022-08-17T07:43:33.974Z,52.90
2022-08-17T07:46:29.984Z,52.90
2022-08-17T07:49:19.097Z,52.90
2022-08-17T07:51:46.652Z,52.90
2022-08-17T07:54:22.125Z,53.00
2022-08-17T07:56:53.575Z,53.20
2022-08-17T07:59:24.831Z,53.00
2022-08-17T08:01:57.942Z,53.00
2022-08-17T08:05:02.167Z,53.00
2022-08-17T08:07:34.923Z,53.00
2022-08-17T08:10:21.974Z,53.00
2022-08-17T08:13:07.584Z,53.00
2022-08-17T08:15:45.158Z,53.00
2022-08-17T08:18:53.386Z,53.00
2022-08-17T08:21:40.990Z,53.10
2022-08-17T08:24:19.576Z,53.10
2022-08-17T08:27:07.129Z,53.10
2022-08-17T08:29:49.624Z,53.10
2022-08-17T08:32:25.871Z,53.10
2022-08-17T08:35:07.304Z,53.10
2022-08-17T08:37:45.447Z,53.10
2022-08-17T08:40:47.578Z,53.10
2022-08-17T08:43:36.219Z,53.10
2022-08-17T08:46:24.048Z,53.10
2022-08-17T08:48:58.143Z,53.10
2022-08-17T08:51:52.017Z,53.10
2022-08-17T08:54:48.087Z,53.00
2022-08-17T08:57:25.458Z,53.00
2022-08-17T09:00:05.230Z,52.90
2022-08-17T09:02:59.718Z,52.90
2022-08-17T09:05:55.870Z,52.80
2022-08-17T09:08:50.551Z,52.80
2022-08-17T09:12:02.340Z,52.70
2022-08-17T09:14:51.563Z,52.70
2022-08-17T09:17:27.820Z,52.60
2022-08-17T09:20:30.473Z,52.50
2022-08-17T09:23:08.549Z,52.40
2022-08-17T09:25:51.040Z,52.40
2022-08-17T09:28:20.921Z,52.30
2022-08-17T09:30:51.631Z,52.20
2022-08-17T09:33:26.159Z,52.20
2022-08-17T09:35:58.471Z,52.20
2022-08-17T09:38:33.949Z,52.20
2022-08-17T09:41:22.481Z,52.10
2022-08-17T09:43:56.323Z,52.00
2022-08-17T09:46:29.777Z,52.00
2022-08-17T09:49:15.019Z,52.00
2022-08-17T09:51:48.647Z,52.10
2022-08-17T09:54:44.495Z,52.20
2022-08-17T09:57:30.521Z,52.30
2022-08-17T10:00:16.570Z,52.40
2022-08-17T10:02:54.341Z,52.40
2022-08-17T10:05:47.062Z,52.40
2022-08-17T10:08:23.951Z,52.40
2022-08-17T10:11:13.268Z,52.50
2022-08-17T10:13:53.860Z,52.20
2022-08-17T10:16:50.067Z,52.30
2022-08-17T10:19:36.561Z,52.20
2022-08-17T10:22:54.813Z,52.20
2022-08-17T10:25:54.589Z,52.20
2022-08-17T10:28:30.284Z,52.20
2022-08-17T10:31:30.954Z,52.20
2022-08-17T10:34:05.277Z,52.10
2022-08-17T10:37:07.214Z,52.10
2022-08-17T10:40:12.422Z,52.00
2022-08-17T10:42:56.811Z,52.00
2022-08-17T10:45:35.449Z,51.90
2022-08-17T10:48:28.276Z,52.00
2022-08-17T10:51:10.903Z,52.00
2022-08-17T10:53:40.740Z,52.00
2022-08-17T10:56:18.055Z,52.00
2022-08-17T10:58:50.893Z,52.00
2022-08-17T11:01:18.133Z,52.00
2022-08-17T11:03:54.917Z,52.00
2022-08-17T11:06:51.461Z,52.00
2022-08-17T11:09:27.668Z,52.00
2022-08-17T11:12:07.166Z,51.90
2022-08-17T11:14:52.148Z,51.90
2022-08-17T11:17:43.732Z,51.90
2022-08-17T11:21:01.347Z,52.00
2022-08-17T11:24:05.942Z,52.60
2022-08-17T11:26:36.469Z,52.00
2022-08-17T11:29:09.436Z,52.10
2022-08-17T11:31:58.138Z,52.10
2022-08-17T11:34:27.936Z,52.10
2022-08-17T11:37:12.883Z,52.20
2022-08-17T11:39:51.834Z,52.30
2022-08-17T11:42:37.461Z,52.30
2022-08-17T11:45:32.854Z,52.30
2022-08-17T11:48:33.269Z,52.30
2022-08-17T11:51:34.112Z,52.30
2022-08-17T11:56:59.031Z,52.20
2022-08-17T11:59:41.984Z,51.90
2022-08-17T12:02:34.821Z,51.90
2022-08-17T12:05:25.982Z,52.00
2022-08-17T12:07:59.337Z,52.70
2022-08-17T12:10:34.345Z,52.00
2022-08-17T12:13:10.352Z,52.00
2022-08-17T12:15:42.335Z,52.00
2022-08-17T12:18:18.266Z,52.00
2022-08-17T12:20:56.070Z,52.00
2022-08-17T12:23:44.122Z,52.70
2022-08-17T12:26:17.323Z,52.00
2022-08-17T12:28:49.833Z,51.90
2022-08-17T12:31:34.372Z,51.90
2022-08-17T12:34:05.496Z,51.90
2022-08-17T12:36:33.661Z,51.80
2022-08-17T12:39:14.302Z,51.80
2022-08-17T12:41:47.973Z,51.00
2022-08-17T12:44:27.433Z,50.50
2022-08-17T12:47:01.788Z,51.00
2022-08-17T12:49:40.886Z,50.70
2022-08-17T12:52:13.801Z,50.50
2022-08-17T12:54:51.462Z,50.40
2022-08-17T12:57:38.056Z,50.00
2022-08-17T13:00:08.139Z,50.10
2022-08-17T13:02:42.740Z,49.70
2022-08-17T13:05:20.604Z,50.00
2022-08-17T13:07:47.840Z,49.90
2022-08-17T13:10:32.185Z,49.70
2022-08-17T13:13:04.825Z,49.90
2022-08-17T13:15:44.459Z,50.00
2022-08-17T13:18:36.321Z,50.10
2022-08-17T13:21:03.241Z,50.20
2022-08-17T13:23:32.313Z,50.20
2022-08-17T13:26:07.649Z,50.30
2022-08-17T13:28:36.682Z,50.40
2022-08-17T13:31:33.790Z,50.50
2022-08-17T13:34:17.372Z,50.50
2022-08-17T13:36:47.926Z,50.50
2022-08-17T13:39:24.116Z,50.50
2022-08-17T13:41:53.972Z,50.50
2022-08-17T13:44:32.683Z,50.50
2022-08-17T13:47:00.632Z,50.60
2022-08-17T13:49:41.574Z,50.60
2022-08-17T13:52:40.787Z,50.60
2022-08-17T13:55:20.802Z,50.70
2022-08-17T13:58:06.514Z,50.60
2022-08-17T14:00:36.252Z,50.60
2022-08-17T14:03:04.999Z,50.60
2022-08-17T14:05:33.703Z,50.60
2022-08-17T14:08:06.605Z,50.70
2022-08-17T14:10:36.356Z,50.80
2022-08-17T14:13:07.047Z,50.90
2022-08-17T14:15:54.891Z,50.90
2022-08-17T14:18:55.927Z,50.90
2022-08-17T14:21:09.854Z,51.10
2022-08-17T14:23:37.433Z,51.20
2022-08-17T14:26:08.752Z,51.50
2022-08-17T14:28:36.527Z,51.40
2022-08-17T14:31:03.736Z,51.40
2022-08-17T14:33:30.673Z,51.50
2022-08-17T14:35:58.703Z,51.40
2022-08-17T14:38:25.566Z,51.40
2022-08-17T14:40:52.719Z,51.40
2022-08-17T14:43:21.560Z,51.30
2022-08-17T14:45:48.400Z,51.10
2022-08-17T14:48:15.867Z,51.20
2022-08-17T14:50:43.848Z,51.10
2022-08-17T14:53:15.532Z,51.10
2022-08-17T14:55:43.053Z,51.20
2022-08-17T14:58:10.320Z,51.10
2022-08-17T15:00:38.521Z,51.20
2022-08-17T15:03:05.505Z,51.10
2022-08-17T15:05:35.387Z,51.00
2022-08-17T15:08:03.484Z,51.10
2022-08-17T15:10:35.231Z,51.10
2022-08-17T15:13:02.168Z,51.00
2022-08-17T15:15:29.626Z,51.00
2022-08-17T15:17:57.403Z,50.90
2022-08-17T15:20:27.951Z,50.90
2022-08-17T15:22:56.013Z,51.60
2022-08-17T15:25:25.048Z,50.90
2022-08-17T15:27:52.651Z,51.00
2022-08-17T15:30:20.237Z,51.10
2022-08-17T15:32:51.301Z,51.10
2022-08-17T15:35:28.983Z,51.30
2022-08-17T15:38:11.588Z,51.50
2022-08-17T15:40:43.120Z,51.60
2022-08-17T15:43:17.022Z,51.70
2022-08-17T15:45:45.085Z,51.70
2022-08-17T15:48:41.450Z,51.80
2022-08-17T15:51:09.506Z,51.80
2022-08-17T15:53:37.659Z,51.90
2022-08-17T15:56:05.696Z,51.90
2022-08-17T15:58:36.811Z,51.90
2022-08-17T16:01:18.232Z,51.90
2022-08-17T16:04:04.803Z,51.90
2022-08-17T16:06:34.696Z,51.90
2022-08-17T16:09:01.536Z,51.80
2022-08-17T16:11:28.403Z,51.80
2022-08-17T16:13:56.194Z,51.90
2022-08-17T16:16:23.711Z,51.90
2022-08-17T16:18:54.523Z,51.80
2022-08-17T16:21:25.847Z,51.70
2022-08-17T16:24:06.389Z,51.70
2022-08-17T16:26:42.347Z,51.70
2022-08-17T16:29:09.280Z,51.70
2022-08-17T16:31:37.789Z,51.70
2022-08-17T16:34:17.177Z,51.70
2022-08-17T16:36:54.836Z,51.70
2022-08-17T16:39:27.600Z,52.40
2022-08-17T16:41:56.580Z,51.70
2022-08-17T16:44:23.506Z,52.40
2022-08-17T16:46:50.535Z,52.40
2022-08-17T16:49:24.478Z,51.80
2022-08-17T16:52:07.220Z,51.80
2022-08-17T16:54:35.501Z,51.80
2022-08-17T16:57:05.229Z,51.80
2022-08-17T16:59:42.120Z,51.80
2022-08-17T17:02:15.284Z,51.80
2022-08-17T17:05:05.981Z,51.80
2022-08-17T17:07:53.619Z,51.80
2022-08-17T17:10:28.356Z,51.80
2022-08-17T17:13:02.162Z,52.00
2022-08-17T17:15:45.210Z,52.00
2022-08-17T17:18:13.701Z,52.20
2022-08-17T17:20:49.560Z,52.20
2022-08-17T17:23:44.860Z,52.20
2022-08-17T17:26:34.245Z,52.10
2022-08-17T17:29:28.165Z,52.10
2022-08-17T17:32:37.807Z,52.10
2022-08-17T17:35:20.401Z,52.10
2022-08-17T17:37:48.538Z,52.20
2022-08-17T17:40:42.118Z,52.30
2022-08-17T17:43:36.999Z,52.40
2022-08-17T17:46:25.430Z,52.40
2022-08-17T17:48:52.799Z,52.70
2022-08-17T17:51:55.739Z,52.70
2022-08-17T17:54:52.922Z,52.70
2022-08-17T17:57:59.622Z,52.80
2022-08-17T18:00:34.025Z,52.80
2022-08-17T18:03:14.524Z,52.80
2022-08-17T18:06:02.654Z,52.90
2022-08-17T18:08:56.823Z,53.00
2022-08-17T18:11:51.513Z,52.90
2022-08-17T18:14:36.312Z,52.90
2022-08-17T18:17:03.913Z,53.00
2022-08-17T18:19:32.021Z,53.10
2022-08-17T18:22:14.392Z,53.10
2022-08-17T18:24:43.962Z,53.20
2022-08-17T18:27:32.149Z,53.20
2022-08-17T18:30:05.846Z,53.20
2022-08-17T18:32:43.498Z,53.10
2022-08-17T18:35:12.295Z,53.10
2022-08-17T18:37:51.286Z,53.00
2022-08-17T18:40:19.360Z,53.10
2022-08-17T18:43:13.629Z,53.10
2022-08-17T18:45:48.201Z,53.10
2022-08-17T18:48:26.051Z,53.10
2022-08-17T18:50:57.646Z,53.00
2022-08-17T18:53:35.463Z,52.90
2022-08-17T18:56:17.521Z,52.90
2022-08-17T18:58:53.506Z,52.90
2022-08-17T19:01:21.470Z,52.80
2022-08-17T19:04:34.532Z,52.80
2022-08-17T19:07:31.181Z,52.60
2022-08-17T19:10:15.111Z,52.60
2022-08-17T19:12:48.260Z,52.70
2022-08-17T19:15:23.240Z,52.90
2022-08-17T19:18:05.545Z,53.00
2022-08-17T19:20:45.561Z,53.20
2022-08-17T19:23:53.560Z,53.20
2022-08-17T19:26:54.308Z,53.30
2022-08-17T19:29:29.589Z,53.30
2022-08-17T19:31:58.464Z,53.40
2022-08-17T19:34:33.135Z,53.40
2022-08-17T19:37:09.225Z,53.40
2022-08-17T19:39:58.167Z,53.40
2022-08-17T19:43:02.970Z,53.40
2022-08-17T19:45:55.969Z,53.40
2022-08-17T19:48:49.462Z,53.30
2022-08-17T19:51:50.566Z,53.20
2022-08-17T19:54:27.147Z,53.20
2022-08-17T19:57:04.672Z,53.20
2022-08-17T20:00:05.173Z,53.10
2022-08-17T20:02:53.234Z,53.10
2022-08-17T20:05:23.056Z,53.10
2022-08-17T20:08:12.741Z,53.10
2022-08-17T20:10:39.673Z,53.10
2022-08-17T20:13:11.141Z,53.10
2022-08-17T20:15:42.526Z,53.20
2022-08-17T20:18:43.955Z,53.20
2022-08-17T20:21:21.871Z,53.20
2022-08-17T20:24:13.258Z,53.30
2022-08-17T20:27:13.587Z,53.20
2022-08-17T20:30:02.944Z,53.20
2022-08-17T20:32:39.066Z,53.10
2022-08-17T20:35:21.497Z,53.10
2022-08-17T20:38:02.155Z,53.20
2022-08-17T20:40:40.976Z,53.20
2022-08-17T20:43:32.644Z,53.20
2022-08-17T20:46:20.470Z,53.30
2022-08-17T20:48:52.039Z,53.20
2022-08-17T20:51:31.432Z,53.10
2022-08-17T20:54:06.423Z,53.10
2022-08-17T20:56:46.394Z,53.20
2022-08-17T20:59:30.304Z,53.20
2022-08-17T21:02:08.065Z,53.30
2022-08-17T21:04:50.280Z,53.30
2022-08-17T21:07:42.954Z,53.30
2022-08-17T21:10:25.933Z,53.40
2022-08-17T21:13:04.411Z,53.40
2022-08-17T21:15:51.724Z,53.40
2022-08-17T21:18:18.462Z,53.40
2022-08-17T21:21:02.915Z,53.30
2022-08-17T21:24:13.813Z,53.20
2022-08-17T21:27:01.783Z,53.20
2022-08-17T21:29:33.830Z,53.10
2022-08-17T21:32:03.824Z,53.10
2022-08-17T21:34:36.671Z,53.10
2022-08-17T21:37:25.263Z,53.20
2022-08-17T21:40:10.455Z,53.30
2022-08-17T21:42:58.157Z,53.30
2022-08-17T21:45:30.911Z,53.30
2022-08-17T21:48:13.011Z,53.30
2022-08-17T21:50:43.325Z,54.00
2022-08-17T21:53:22.808Z,53.30
2022-08-17T21:55:51.481Z,53.40
2022-08-17T21:58:34.676Z,53.30
2022-08-17T22:01:23.502Z,53.20
2022-08-17T22:04:24.154Z,53.30
2022-08-17T22:06:57.432Z,53.30
2022-08-17T22:09:41.633Z,53.20
2022-08-17T22:12:16.379Z,53.20
2022-08-17T22:14:56.708Z,53.20
2022-08-17T22:17:35.388Z,53.20
2022-08-17T22:20:09.485Z,53.10
2022-08-17T22:23:12.463Z,53.10
2022-08-17T22:25:57.494Z,53.10
2022-08-17T22:28:43.835Z,53.10
2022-08-17T22:31:16.848Z,53.00
2022-08-17T22:33:48.910Z,53.00
2022-08-17T22:36:29.010Z,53.00
2022-08-17T22:39:07.395Z,53.00
2022-08-17T22:41:53.216Z,53.00
2022-08-17T22:44:37.485Z,53.00
2022-08-17T22:47:28.244Z,52.90
2022-08-17T22:49:58.396Z,53.00
2022-08-17T22:52:32.371Z,53.00
2022-08-17T22:55:32.542Z,52.90
2022-08-17T22:58:19.721Z,52.80
2022-08-17T23:00:49.335Z,52.90
2022-08-17T23:03:24.320Z,53.00
2022-08-17T23:06:09.569Z,53.20
2022-08-17T23:08:54.573Z,53.30
2022-08-17T23:11:36.923Z,53.30
2022-08-17T23:14:14.459Z,53.40
2022-08-17T23:16:44.484Z,53.40
2022-08-17T23:19:15.313Z,53.40
2022-08-17T23:21:44.833Z,53.80
2022-08-17T23:24:22.053Z,53.40
2022-08-17T23:26:49.138Z,53.30
2022-08-17T23:29:16.197Z,53.40
2022-08-17T23:31:43.147Z,53.40
2022-08-17T23:34:13.147Z,53.30
2022-08-17T23:36:39.970Z,53.30
2022-08-17T23:39:07.243Z,53.30
2022-08-17T23:41:37.449Z,53.30
2022-08-17T23:44:05.859Z,53.20
2022-08-17T23:46:33.319Z,53.30
2022-08-17T23:49:00.566Z,53.30
2022-08-17T23:51:31.433Z,53.20
2022-08-17T23:54:08.133Z,54.00
2022-08-17T23:56:45.396Z,53.30
2022-08-17T23:59:18.332Z,53.30
